sensor_id;sensor_type;location;lat;lon;timestamp;P1;durP1;ratioP1;P2;durP2;ratioP2
62861;SDS011;48953;53.110;5.592;2023-03-19T00:00:12;4.90;;;3.28;;
62861;SDS011;48953;53.110;5.592;2023-03-19T00:02:38;4.03;;;3.10;;
62861;SDS011;48953;53.110;5.592;2023-03-19T00:05:05;3.55;;;3.13;;
62861;SDS011;48953;53.110;5.592;2023-03-19T00:07:31;4.00;;;3.17;;
62861;SDS011;48953;53.110;5.592;2023-03-19T00:09:57;4.80;;;2.67;;
62861;SDS011;48953;53.110;5.592;2023-03-19T00:12:23;3.33;;;2.75;;
62861;SDS011;48953;53.110;5.592;2023-03-19T00:14:49;8.45;;;3.55;;
62861;SDS011;48953;53.110;5.592;2023-03-19T00:17:15;3.05;;;2.65;;
62861;SDS011;48953;53.110;5.592;2023-03-19T00:19:41;6.88;;;3.10;;
62861;SDS011;48953;53.110;5.592;2023-03-19T00:22:07;4.93;;;3.25;;
62861;SDS011;48953;53.110;5.592;2023-03-19T00:24:33;5.40;;;2.97;;
62861;SDS011;48953;53.110;5.592;2023-03-19T00:27:00;5.40;;;3.63;;
62861;SDS011;48953;53.110;5.592;2023-03-19T00:29:27;4.82;;;2.88;;
62861;SDS011;48953;53.110;5.592;2023-03-19T00:31:53;4.68;;;3.25;;
62861;SDS011;48953;53.110;5.592;2023-03-19T00:34:19;5.47;;;3.08;;
62861;SDS011;48953;53.110;5.592;2023-03-19T00:36:45;5.18;;;2.70;;
62861;SDS011;48953;53.110;5.592;2023-03-19T00:39:11;4.75;;;3.10;;
62861;SDS011;48953;53.110;5.592;2023-03-19T00:41:37;4.18;;;2.90;;
62861;SDS011;48953;53.110;5.592;2023-03-19T00:44:04;4.32;;;2.92;;
62861;SDS011;48953;53.110;5.592;2023-03-19T00:46:30;5.88;;;3.00;;
62861;SDS011;48953;53.110;5.592;2023-03-19T00:48:57;3.45;;;2.92;;
62861;SDS011;48953;53.110;5.592;2023-03-19T00:51:23;7.05;;;3.90;;
62861;SDS011;48953;53.110;5.592;2023-03-19T00:53:50;5.40;;;2.78;;
62861;SDS011;48953;53.110;5.592;2023-03-19T00:56:16;5.63;;;2.80;;
62861;SDS011;48953;53.110;5.592;2023-03-19T00:58:43;3.40;;;2.67;;
62861;SDS011;48953;53.110;5.592;2023-03-19T01:01:10;5.30;;;3.05;;
62861;SDS011;48953;53.110;5.592;2023-03-19T01:03:36;4.20;;;2.90;;
62861;SDS011;48953;53.110;5.592;2023-03-19T01:06:03;3.78;;;2.58;;
62861;SDS011;48953;53.110;5.592;2023-03-19T01:08:29;3.00;;;2.50;;
62861;SDS011;48953;53.110;5.592;2023-03-19T01:10:55;5.30;;;2.65;;
62861;SDS011;48953;53.110;5.592;2023-03-19T01:13:21;3.58;;;2.50;;
62861;SDS011;48953;53.110;5.592;2023-03-19T01:15:50;3.65;;;2.40;;
62861;SDS011;48953;53.110;5.592;2023-03-19T01:18:16;3.80;;;2.53;;
62861;SDS011;48953;53.110;5.592;2023-03-19T01:20:42;5.53;;;2.92;;
62861;SDS011;48953;53.110;5.592;2023-03-19T01:23:08;3.20;;;2.65;;
62861;SDS011;48953;53.110;5.592;2023-03-19T01:25:34;4.15;;;2.50;;
62861;SDS011;48953;53.110;5.592;2023-03-19T01:28:01;4.07;;;2.60;;
62861;SDS011;48953;53.110;5.592;2023-03-19T01:30:27;3.47;;;2.55;;
62861;SDS011;48953;53.110;5.592;2023-03-19T01:32:53;2.75;;;2.50;;
62861;SDS011;48953;53.110;5.592;2023-03-19T01:35:19;3.15;;;2.50;;
62861;SDS011;48953;53.110;5.592;2023-03-19T01:37:45;4.85;;;3.50;;
62861;SDS011;48953;53.110;5.592;2023-03-19T01:40:12;6.13;;;4.07;;
62861;SDS011;48953;53.110;5.592;2023-03-19T01:45:57;4.45;;;3.42;;
62861;SDS011;48953;53.110;5.592;2023-03-19T01:48:36;7.65;;;4.20;;
62861;SDS011;48953;53.110;5.592;2023-03-19T01:51:10;9.20;;;4.43;;
62861;SDS011;48953;53.110;5.592;2023-03-19T01:53:36;7.85;;;5.50;;
62861;SDS011;48953;53.110;5.592;2023-03-19T01:56:13;6.90;;;4.70;;
62861;SDS011;48953;53.110;5.592;2023-03-19T01:58:40;9.32;;;5.63;;
62861;SDS011;48953;53.110;5.592;2023-03-19T02:01:07;11.82;;;5.68;;
62861;SDS011;48953;53.110;5.592;2023-03-19T02:03:33;10.40;;;5.78;;
62861;SDS011;48953;53.110;5.592;2023-03-19T02:06:00;10.05;;;5.85;;
62861;SDS011;48953;53.110;5.592;2023-03-19T02:08:26;10.57;;;6.55;;
62861;SDS011;48953;53.110;5.592;2023-03-19T02:10:52;10.20;;;6.32;;
62861;SDS011;48953;53.110;5.592;2023-03-19T02:13:20;12.32;;;6.97;;
62861;SDS011;48953;53.110;5.592;2023-03-19T02:15:46;10.35;;;7.10;;
62861;SDS011;48953;53.110;5.592;2023-03-19T02:18:12;12.45;;;7.63;;
62861;SDS011;48953;53.110;5.592;2023-03-19T02:20:46;13.93;;;8.32;;
62861;SDS011;48953;53.110;5.592;2023-03-19T02:26:02;12.88;;;8.32;;
62861;SDS011;48953;53.110;5.592;2023-03-19T02:28:29;12.07;;;8.25;;
62861;SDS011;48953;53.110;5.592;2023-03-19T02:30:57;12.75;;;8.30;;
62861;SDS011;48953;53.110;5.592;2023-03-19T02:33:23;14.27;;;8.65;;
62861;SDS011;48953;53.110;5.592;2023-03-19T02:35:49;14.02;;;8.93;;
62861;SDS011;48953;53.110;5.592;2023-03-19T02:38:16;12.88;;;8.68;;
62861;SDS011;48953;53.110;5.592;2023-03-19T02:40:52;12.48;;;8.15;;
62861;SDS011;48953;53.110;5.592;2023-03-19T02:43:21;14.77;;;9.25;;
62861;SDS011;48953;53.110;5.592;2023-03-19T02:45:47;13.95;;;8.63;;
62861;SDS011;48953;53.110;5.592;2023-03-19T02:48:13;14.32;;;9.25;;
62861;SDS011;48953;53.110;5.592;2023-03-19T02:50:39;13.35;;;9.32;;
62861;SDS011;48953;53.110;5.592;2023-03-19T02:53:06;15.60;;;9.40;;
62861;SDS011;48953;53.110;5.592;2023-03-19T02:55:32;16.17;;;9.27;;
62861;SDS011;48953;53.110;5.592;2023-03-19T02:57:58;15.07;;;9.85;;
62861;SDS011;48953;53.110;5.592;2023-03-19T03:00:24;14.35;;;9.52;;
62861;SDS011;48953;53.110;5.592;2023-03-19T03:02:50;15.90;;;9.05;;
62861;SDS011;48953;53.110;5.592;2023-03-19T03:05:16;15.77;;;9.65;;
62861;SDS011;48953;53.110;5.592;2023-03-19T03:07:42;14.18;;;8.88;;
62861;SDS011;48953;53.110;5.592;2023-03-19T03:10:09;15.45;;;9.32;;
62861;SDS011;48953;53.110;5.592;2023-03-19T03:12:36;15.35;;;9.63;;
62861;SDS011;48953;53.110;5.592;2023-03-19T03:15:04;14.63;;;9.68;;
62861;SDS011;48953;53.110;5.592;2023-03-19T03:17:31;13.90;;;9.30;;
62861;SDS011;48953;53.110;5.592;2023-03-19T03:19:57;14.55;;;9.25;;
62861;SDS011;48953;53.110;5.592;2023-03-19T03:22:23;16.75;;;10.23;;
62861;SDS011;48953;53.110;5.592;2023-03-19T03:24:49;16.30;;;10.55;;
62861;SDS011;48953;53.110;5.592;2023-03-19T03:27:15;15.80;;;9.43;;
62861;SDS011;48953;53.110;5.592;2023-03-19T03:29:41;16.80;;;9.70;;
62861;SDS011;48953;53.110;5.592;2023-03-19T03:32:07;14.50;;;9.40;;
62861;SDS011;48953;53.110;5.592;2023-03-19T03:34:33;15.73;;;9.65;;
62861;SDS011;48953;53.110;5.592;2023-03-19T03:36:59;16.13;;;10.45;;
62861;SDS011;48953;53.110;5.592;2023-03-19T03:39:25;16.17;;;10.23;;
62861;SDS011;48953;53.110;5.592;2023-03-19T03:41:51;15.68;;;9.90;;
62861;SDS011;48953;53.110;5.592;2023-03-19T03:44:17;14.60;;;10.35;;
62861;SDS011;48953;53.110;5.592;2023-03-19T03:46:43;17.90;;;10.20;;
62861;SDS011;48953;53.110;5.592;2023-03-19T03:49:10;19.50;;;10.85;;
62861;SDS011;48953;53.110;5.592;2023-03-19T03:51:37;18.55;;;11.43;;
62861;SDS011;48953;53.110;5.592;2023-03-19T03:54:03;15.93;;;10.60;;
62861;SDS011;48953;53.110;5.592;2023-03-19T03:56:29;20.70;;;11.80;;
62861;SDS011;48953;53.110;5.592;2023-03-19T03:59:03;18.02;;;11.27;;
62861;SDS011;48953;53.110;5.592;2023-03-19T04:01:30;17.30;;;11.07;;
62861;SDS011;48953;53.110;5.592;2023-03-19T04:03:57;18.83;;;11.15;;
62861;SDS011;48953;53.110;5.592;2023-03-19T04:06:24;16.88;;;10.82;;
62861;SDS011;48953;53.110;5.592;2023-03-19T04:08:51;19.13;;;10.85;;
62861;SDS011;48953;53.110;5.592;2023-03-19T04:11:17;18.67;;;10.95;;
62861;SDS011;48953;53.110;5.592;2023-03-19T04:13:43;19.42;;;10.73;;
62861;SDS011;48953;53.110;5.592;2023-03-19T04:16:09;17.23;;;11.55;;
62861;SDS011;48953;53.110;5.592;2023-03-19T04:18:35;17.60;;;10.77;;
62861;SDS011;48953;53.110;5.592;2023-03-19T04:21:03;16.08;;;10.45;;
62861;SDS011;48953;53.110;5.592;2023-03-19T04:23:29;17.63;;;10.82;;
62861;SDS011;48953;53.110;5.592;2023-03-19T04:25:59;18.88;;;12.02;;
62861;SDS011;48953;53.110;5.592;2023-03-19T04:28:25;19.67;;;11.05;;
62861;SDS011;48953;53.110;5.592;2023-03-19T04:30:51;21.00;;;11.45;;
62861;SDS011;48953;53.110;5.592;2023-03-19T04:33:17;19.08;;;11.48;;
62861;SDS011;48953;53.110;5.592;2023-03-19T04:35:43;24.25;;;12.63;;
62861;SDS011;48953;53.110;5.592;2023-03-19T04:38:09;18.52;;;11.75;;
62861;SDS011;48953;53.110;5.592;2023-03-19T04:40:35;19.95;;;11.63;;
62861;SDS011;48953;53.110;5.592;2023-03-19T04:43:06;21.20;;;11.02;;
62861;SDS011;48953;53.110;5.592;2023-03-19T04:47:59;17.98;;;10.48;;
62861;SDS011;48953;53.110;5.592;2023-03-19T04:50:25;20.35;;;11.00;;
62861;SDS011;48953;53.110;5.592;2023-03-19T04:52:51;19.15;;;10.18;;
62861;SDS011;48953;53.110;5.592;2023-03-19T04:55:18;15.43;;;10.07;;
62861;SDS011;48953;53.110;5.592;2023-03-19T04:57:44;19.20;;;10.63;;
62861;SDS011;48953;53.110;5.592;2023-03-19T05:00:10;19.88;;;10.60;;
62861;SDS011;48953;53.110;5.592;2023-03-19T05:02:38;19.92;;;10.35;;
62861;SDS011;48953;53.110;5.592;2023-03-19T05:05:04;18.63;;;10.43;;
62861;SDS011;48953;53.110;5.592;2023-03-19T05:07:31;19.27;;;10.40;;
62861;SDS011;48953;53.110;5.592;2023-03-19T05:09:57;20.80;;;11.50;;
62861;SDS011;48953;53.110;5.592;2023-03-19T05:12:23;23.67;;;11.00;;
62861;SDS011;48953;53.110;5.592;2023-03-19T05:14:49;30.00;;;11.73;;
62861;SDS011;48953;53.110;5.592;2023-03-19T05:17:15;23.80;;;12.65;;
62861;SDS011;48953;53.110;5.592;2023-03-19T05:19:41;21.17;;;11.45;;
62861;SDS011;48953;53.110;5.592;2023-03-19T05:22:08;23.13;;;12.10;;
62861;SDS011;48953;53.110;5.592;2023-03-19T05:24:35;26.27;;;13.25;;
62861;SDS011;48953;53.110;5.592;2023-03-19T05:27:02;22.85;;;12.00;;
62861;SDS011;48953;53.110;5.592;2023-03-19T05:29:28;19.15;;;11.40;;
62861;SDS011;48953;53.110;5.592;2023-03-19T05:31:54;20.52;;;11.07;;
62861;SDS011;48953;53.110;5.592;2023-03-19T05:34:20;27.08;;;12.52;;
62861;SDS011;48953;53.110;5.592;2023-03-19T05:36:47;21.35;;;11.38;;
62861;SDS011;48953;53.110;5.592;2023-03-19T05:39:13;21.10;;;11.30;;
62861;SDS011;48953;53.110;5.592;2023-03-19T05:41:39;19.33;;;10.43;;
62861;SDS011;48953;53.110;5.592;2023-03-19T05:44:05;20.88;;;10.82;;
62861;SDS011;48953;53.110;5.592;2023-03-19T05:46:31;22.05;;;11.68;;
62861;SDS011;48953;53.110;5.592;2023-03-19T05:48:57;20.77;;;11.40;;
62861;SDS011;48953;53.110;5.592;2023-03-19T05:51:23;23.20;;;11.60;;
62861;SDS011;48953;53.110;5.592;2023-03-19T05:53:49;20.65;;;10.90;;
62861;SDS011;48953;53.110;5.592;2023-03-19T05:56:15;20.25;;;10.65;;
62861;SDS011;48953;53.110;5.592;2023-03-19T05:58:41;21.88;;;10.70;;
62861;SDS011;48953;53.110;5.592;2023-03-19T06:01:07;21.23;;;10.82;;
62861;SDS011;48953;53.110;5.592;2023-03-19T06:03:34;21.77;;;11.27;;
62861;SDS011;48953;53.110;5.592;2023-03-19T06:06:00;21.15;;;10.93;;
62861;SDS011;48953;53.110;5.592;2023-03-19T06:14:33;20.20;;;10.70;;
62861;SDS011;48953;53.110;5.592;2023-03-19T06:16:59;21.08;;;10.90;;
62861;SDS011;48953;53.110;5.592;2023-03-19T06:19:25;21.80;;;10.82;;
62861;SDS011;48953;53.110;5.592;2023-03-19T06:21:57;21.88;;;10.90;;
62861;SDS011;48953;53.110;5.592;2023-03-19T06:24:23;21.83;;;10.98;;
62861;SDS011;48953;53.110;5.592;2023-03-19T06:26:49;21.65;;;10.95;;
62861;SDS011;48953;53.110;5.592;2023-03-19T06:29:15;25.83;;;11.65;;
62861;SDS011;48953;53.110;5.592;2023-03-19T06:31:41;25.63;;;11.48;;
62861;SDS011;48953;53.110;5.592;2023-03-19T06:34:08;25.83;;;11.70;;
62861;SDS011;48953;53.110;5.592;2023-03-19T06:36:34;26.92;;;12.45;;
62861;SDS011;48953;53.110;5.592;2023-03-19T06:39:01;31.50;;;13.25;;
62861;SDS011;48953;53.110;5.592;2023-03-19T06:41:27;30.48;;;13.05;;
62861;SDS011;48953;53.110;5.592;2023-03-19T06:43:53;32.35;;;13.65;;
62861;SDS011;48953;53.110;5.592;2023-03-19T06:46:20;25.85;;;12.10;;
62861;SDS011;48953;53.110;5.592;2023-03-19T06:48:46;33.28;;;13.07;;
62861;SDS011;48953;53.110;5.592;2023-03-19T06:51:12;37.42;;;14.43;;
62861;SDS011;48953;53.110;5.592;2023-03-19T06:56:57;57.75;;;15.57;;
62861;SDS011;48953;53.110;5.592;2023-03-19T06:59:23;66.72;;;17.80;;
62861;SDS011;48953;53.110;5.592;2023-03-19T07:01:49;56.92;;;17.10;;
62861;SDS011;48953;53.110;5.592;2023-03-19T07:04:16;61.40;;;18.33;;
62861;SDS011;48953;53.110;5.592;2023-03-19T07:06:42;49.28;;;17.30;;
62861;SDS011;48953;53.110;5.592;2023-03-19T07:09:08;55.15;;;17.08;;
62861;SDS011;48953;53.110;5.592;2023-03-19T07:11:34;43.28;;;14.77;;
62861;SDS011;48953;53.110;5.592;2023-03-19T07:14:00;57.38;;;17.48;;
62861;SDS011;48953;53.110;5.592;2023-03-19T07:16:26;68.15;;;16.08;;
62861;SDS011;48953;53.110;5.592;2023-03-19T07:18:53;57.28;;;16.10;;
62861;SDS011;48953;53.110;5.592;2023-03-19T07:21:20;38.42;;;15.50;;
62861;SDS011;48953;53.110;5.592;2023-03-19T07:23:46;72.15;;;18.27;;
62861;SDS011;48953;53.110;5.592;2023-03-19T07:26:14;59.33;;;17.83;;
62861;SDS011;48953;53.110;5.592;2023-03-19T07:28:40;40.90;;;16.05;;
62861;SDS011;48953;53.110;5.592;2023-03-19T07:31:06;45.22;;;15.77;;
62861;SDS011;48953;53.110;5.592;2023-03-19T07:33:32;53.78;;;17.08;;
62861;SDS011;48953;53.110;5.592;2023-03-19T07:35:58;70.38;;;17.27;;
62861;SDS011;48953;53.110;5.592;2023-03-19T07:38:26;56.03;;;16.70;;
62861;SDS011;48953;53.110;5.592;2023-03-19T07:40:52;53.72;;;16.77;;
62861;SDS011;48953;53.110;5.592;2023-03-19T07:43:18;70.20;;;17.98;;
62861;SDS011;48953;53.110;5.592;2023-03-19T07:45:44;55.45;;;18.13;;
62861;SDS011;48953;53.110;5.592;2023-03-19T07:48:10;56.47;;;17.73;;
62861;SDS011;48953;53.110;5.592;2023-03-19T07:50:37;61.97;;;16.63;;
62861;SDS011;48953;53.110;5.592;2023-03-19T07:53:03;56.35;;;16.23;;
62861;SDS011;48953;53.110;5.592;2023-03-19T07:55:35;55.50;;;17.15;;
62861;SDS011;48953;53.110;5.592;2023-03-19T07:58:02;67.68;;;17.35;;
62861;SDS011;48953;53.110;5.592;2023-03-19T08:00:28;44.20;;;14.23;;
62861;SDS011;48953;53.110;5.592;2023-03-19T08:02:54;41.13;;;13.50;;
62861;SDS011;48953;53.110;5.592;2023-03-19T08:05:20;42.85;;;13.20;;
62861;SDS011;48953;53.110;5.592;2023-03-19T08:07:47;50.97;;;13.93;;
62861;SDS011;48953;53.110;5.592;2023-03-19T08:10:14;41.63;;;12.20;;
62861;SDS011;48953;53.110;5.592;2023-03-19T08:12:40;45.20;;;13.07;;
62861;SDS011;48953;53.110;5.592;2023-03-19T08:15:07;39.45;;;11.35;;
62861;SDS011;48953;53.110;5.592;2023-03-19T08:17:33;38.33;;;12.75;;
62861;SDS011;48953;53.110;5.592;2023-03-19T08:20:06;39.33;;;12.02;;
62861;SDS011;48953;53.110;5.592;2023-03-19T08:22:33;49.45;;;13.70;;
62861;SDS011;48953;53.110;5.592;2023-03-19T08:24:59;37.67;;;12.45;;
62861;SDS011;48953;53.110;5.592;2023-03-19T08:27:25;33.22;;;11.20;;
62861;SDS011;48953;53.110;5.592;2023-03-19T08:29:52;36.28;;;11.98;;
62861;SDS011;48953;53.110;5.592;2023-03-19T08:32:18;35.25;;;11.52;;
62861;SDS011;48953;53.110;5.592;2023-03-19T08:34:44;33.78;;;11.75;;
62861;SDS011;48953;53.110;5.592;2023-03-19T08:37:10;35.10;;;12.07;;
62861;SDS011;48953;53.110;5.592;2023-03-19T08:39:36;38.30;;;12.85;;
62861;SDS011;48953;53.110;5.592;2023-03-19T08:42:02;33.38;;;13.23;;
62861;SDS011;48953;53.110;5.592;2023-03-19T08:44:29;36.58;;;14.15;;
62861;SDS011;48953;53.110;5.592;2023-03-19T08:46:55;29.65;;;12.07;;
62861;SDS011;48953;53.110;5.592;2023-03-19T08:49:21;26.13;;;10.60;;
62861;SDS011;48953;53.110;5.592;2023-03-19T08:51:46;24.73;;;10.63;;
62861;SDS011;48953;53.110;5.592;2023-03-19T08:54:13;25.40;;;11.10;;
62861;SDS011;48953;53.110;5.592;2023-03-19T08:56:39;31.10;;;10.95;;
62861;SDS011;48953;53.110;5.592;2023-03-19T08:59:05;28.02;;;12.05;;
62861;SDS011;48953;53.110;5.592;2023-03-19T09:01:38;33.97;;;11.65;;
62861;SDS011;48953;53.110;5.592;2023-03-19T09:04:05;29.60;;;11.75;;
62861;SDS011;48953;53.110;5.592;2023-03-19T09:06:31;24.70;;;10.73;;
62861;SDS011;48953;53.110;5.592;2023-03-19T09:08:57;21.40;;;8.55;;
62861;SDS011;48953;53.110;5.592;2023-03-19T09:11:23;20.23;;;8.32;;
62861;SDS011;48953;53.110;5.592;2023-03-19T09:13:49;16.35;;;7.43;;
62861;SDS011;48953;53.110;5.592;2023-03-19T09:16:15;21.23;;;7.93;;
62861;SDS011;48953;53.110;5.592;2023-03-19T09:18:42;16.52;;;7.88;;
62861;SDS011;48953;53.110;5.592;2023-03-19T09:21:08;11.52;;;5.93;;
62861;SDS011;48953;53.110;5.592;2023-03-19T09:23:34;14.25;;;6.43;;
62861;SDS011;48953;53.110;5.592;2023-03-19T09:26:00;13.43;;;6.85;;
62861;SDS011;48953;53.110;5.592;2023-03-19T09:28:26;14.43;;;6.38;;
62861;SDS011;48953;53.110;5.592;2023-03-19T09:30:52;16.58;;;7.25;;
62861;SDS011;48953;53.110;5.592;2023-03-19T09:33:19;16.10;;;7.15;;
62861;SDS011;48953;53.110;5.592;2023-03-19T09:35:49;20.08;;;8.30;;
62861;SDS011;48953;53.110;5.592;2023-03-19T09:38:16;16.10;;;8.45;;
62861;SDS011;48953;53.110;5.592;2023-03-19T09:40:43;15.27;;;8.40;;
62861;SDS011;48953;53.110;5.592;2023-03-19T09:43:33;18.98;;;8.85;;
62861;SDS011;48953;53.110;5.592;2023-03-19T09:46:03;18.67;;;8.65;;
62861;SDS011;48953;53.110;5.592;2023-03-19T09:49:13;21.63;;;9.50;;
62861;SDS011;48953;53.110;5.592;2023-03-19T09:51:20;16.25;;;7.93;;
62861;SDS011;48953;53.110;5.592;2023-03-19T09:56:23;16.70;;;8.40;;
62861;SDS011;48953;53.110;5.592;2023-03-19T09:58:49;17.73;;;8.88;;
62861;SDS011;48953;53.110;5.592;2023-03-19T10:01:30;17.60;;;7.80;;
62861;SDS011;48953;53.110;5.592;2023-03-19T10:04:05;16.98;;;8.27;;
62861;SDS011;48953;53.110;5.592;2023-03-19T10:06:34;16.30;;;8.23;;
62861;SDS011;48953;53.110;5.592;2023-03-19T10:17:02;15.30;;;7.97;;
62861;SDS011;48953;53.110;5.592;2023-03-19T10:19:49;16.08;;;7.78;;
62861;SDS011;48953;53.110;5.592;2023-03-19T10:22:29;14.88;;;7.65;;
62861;SDS011;48953;53.110;5.592;2023-03-19T10:24:58;18.80;;;8.90;;
62861;SDS011;48953;53.110;5.592;2023-03-19T10:27:25;14.77;;;7.80;;
62861;SDS011;48953;53.110;5.592;2023-03-19T10:29:53;16.10;;;8.90;;
62861;SDS011;48953;53.110;5.592;2023-03-19T10:32:40;20.33;;;8.98;;
62861;SDS011;48953;53.110;5.592;2023-03-19T10:37:46;17.35;;;8.27;;
62861;SDS011;48953;53.110;5.592;2023-03-19T10:40:23;15.50;;;7.63;;
62861;SDS011;48953;53.110;5.592;2023-03-19T10:43:12;17.42;;;8.73;;
62861;SDS011;48953;53.110;5.592;2023-03-19T10:45:41;15.07;;;8.15;;
62861;SDS011;48953;53.110;5.592;2023-03-19T10:48:11;13.93;;;6.88;;
62861;SDS011;48953;53.110;5.592;2023-03-19T10:50:41;15.13;;;7.32;;
62861;SDS011;48953;53.110;5.592;2023-03-19T10:55:38;17.05;;;7.47;;
62861;SDS011;48953;53.110;5.592;2023-03-19T10:58:19;15.95;;;8.05;;
62861;SDS011;48953;53.110;5.592;2023-03-19T11:00:45;16.00;;;7.57;;
62861;SDS011;48953;53.110;5.592;2023-03-19T11:03:33;16.60;;;8.85;;
62861;SDS011;48953;53.110;5.592;2023-03-19T11:09:29;18.02;;;8.68;;
62861;SDS011;48953;53.110;5.592;2023-03-19T11:11:34;16.85;;;9.40;;
62861;SDS011;48953;53.110;5.592;2023-03-19T11:14:05;18.17;;;9.63;;
62861;SDS011;48953;53.110;5.592;2023-03-19T11:16:36;19.75;;;10.02;;
62861;SDS011;48953;53.110;5.592;2023-03-19T11:19:21;23.42;;;11.52;;
62861;SDS011;48953;53.110;5.592;2023-03-19T11:24:26;30.92;;;13.20;;
62861;SDS011;48953;53.110;5.592;2023-03-19T11:26:56;23.98;;;12.77;;
62861;SDS011;48953;53.110;5.592;2023-03-19T11:29:22;22.92;;;11.32;;
62861;SDS011;48953;53.110;5.592;2023-03-19T11:31:54;21.88;;;11.20;;
62861;SDS011;48953;53.110;5.592;2023-03-19T11:34:30;18.98;;;9.88;;
62861;SDS011;48953;53.110;5.592;2023-03-19T11:37:13;18.65;;;10.07;;
62861;SDS011;48953;53.110;5.592;2023-03-19T12:00:50;32.13;;;14.82;;
62861;SDS011;48953;53.110;5.592;2023-03-19T12:08:35;30.23;;;14.10;;
62861;SDS011;48953;53.110;5.592;2023-03-19T12:11:06;27.85;;;13.48;;
62861;SDS011;48953;53.110;5.592;2023-03-19T12:13:45;30.73;;;14.10;;
62861;SDS011;48953;53.110;5.592;2023-03-19T12:24:01;21.20;;;12.05;;
62861;SDS011;48953;53.110;5.592;2023-03-19T12:29:02;23.85;;;12.68;;
62861;SDS011;48953;53.110;5.592;2023-03-19T12:34:20;29.35;;;13.43;;
62861;SDS011;48953;53.110;5.592;2023-03-19T12:37:02;25.55;;;12.75;;
62861;SDS011;48953;53.110;5.592;2023-03-19T12:39:32;25.20;;;13.02;;
62861;SDS011;48953;53.110;5.592;2023-03-19T12:41:59;24.75;;;12.73;;
62861;SDS011;48953;53.110;5.592;2023-03-19T12:54:39;25.83;;;13.77;;
62861;SDS011;48953;53.110;5.592;2023-03-19T12:57:09;27.35;;;13.27;;
62861;SDS011;48953;53.110;5.592;2023-03-19T13:02:23;26.27;;;12.70;;
62861;SDS011;48953;53.110;5.592;2023-03-19T13:08:05;28.33;;;13.38;;
62861;SDS011;48953;53.110;5.592;2023-03-19T13:10:38;28.00;;;13.07;;
62861;SDS011;48953;53.110;5.592;2023-03-19T13:15:50;28.00;;;14.45;;
62861;SDS011;48953;53.110;5.592;2023-03-19T13:21:13;32.63;;;13.98;;
62861;SDS011;48953;53.110;5.592;2023-03-19T13:23:42;32.85;;;15.20;;
62861;SDS011;48953;53.110;5.592;2023-03-19T13:26:10;33.03;;;15.88;;
62861;SDS011;48953;53.110;5.592;2023-03-19T13:28:37;27.50;;;14.30;;
62861;SDS011;48953;53.110;5.592;2023-03-19T13:31:04;33.75;;;14.75;;
62861;SDS011;48953;53.110;5.592;2023-03-19T13:33:32;29.15;;;14.65;;
62861;SDS011;48953;53.110;5.592;2023-03-19T13:36:03;33.13;;;15.35;;
62861;SDS011;48953;53.110;5.592;2023-03-19T13:41:01;34.15;;;16.08;;
62861;SDS011;48953;53.110;5.592;2023-03-19T13:48:35;28.50;;;14.25;;
62861;SDS011;48953;53.110;5.592;2023-03-19T13:51:24;32.42;;;14.60;;
62861;SDS011;48953;53.110;5.592;2023-03-19T13:56:26;27.92;;;14.20;;
62861;SDS011;48953;53.110;5.592;2023-03-19T13:59:17;31.95;;;15.05;;
62861;SDS011;48953;53.110;5.592;2023-03-19T14:01:39;25.02;;;13.23;;
62861;SDS011;48953;53.110;5.592;2023-03-19T14:04:16;29.83;;;15.13;;
62861;SDS011;48953;53.110;5.592;2023-03-19T14:06:44;27.52;;;13.55;;
62861;SDS011;48953;53.110;5.592;2023-03-19T14:12:07;28.63;;;14.90;;
62861;SDS011;48953;53.110;5.592;2023-03-19T14:14:37;27.60;;;14.38;;
62861;SDS011;48953;53.110;5.592;2023-03-19T14:17:03;31.17;;;14.00;;
62861;SDS011;48953;53.110;5.592;2023-03-19T14:19:29;40.03;;;15.02;;
62861;SDS011;48953;53.110;5.592;2023-03-19T14:24:39;39.67;;;16.75;;
62861;SDS011;48953;53.110;5.592;2023-03-19T14:30:10;34.85;;;14.23;;
62861;SDS011;48953;53.110;5.592;2023-03-19T14:32:40;29.60;;;13.43;;
62861;SDS011;48953;53.110;5.592;2023-03-19T14:35:09;32.17;;;13.63;;
62861;SDS011;48953;53.110;5.592;2023-03-19T14:42:34;32.67;;;12.73;;
62861;SDS011;48953;53.110;5.592;2023-03-19T14:45:22;31.15;;;13.80;;
62861;SDS011;48953;53.110;5.592;2023-03-19T14:47:55;30.85;;;12.95;;
62861;SDS011;48953;53.110;5.592;2023-03-19T14:50:44;28.85;;;12.80;;
62861;SDS011;48953;53.110;5.592;2023-03-19T14:53:13;28.27;;;12.75;;
62861;SDS011;48953;53.110;5.592;2023-03-19T14:55:41;26.20;;;11.88;;
62861;SDS011;48953;53.110;5.592;2023-03-19T14:58:10;27.40;;;12.23;;
62861;SDS011;48953;53.110;5.592;2023-03-19T15:00:38;24.50;;;11.77;;
62861;SDS011;48953;53.110;5.592;2023-03-19T15:03:06;23.70;;;11.13;;
62861;SDS011;48953;53.110;5.592;2023-03-19T15:05:38;23.92;;;10.93;;
62861;SDS011;48953;53.110;5.592;2023-03-19T15:08:05;22.65;;;11.63;;
62861;SDS011;48953;53.110;5.592;2023-03-19T15:16:10;13.45;;;8.38;;
62861;SDS011;48953;53.110;5.592;2023-03-19T15:18:39;14.48;;;8.15;;
62861;SDS011;48953;53.110;5.592;2023-03-19T15:21:05;16.27;;;7.75;;
62861;SDS011;48953;53.110;5.592;2023-03-19T15:23:31;14.05;;;6.95;;
62861;SDS011;48953;53.110;5.592;2023-03-19T15:25:58;12.30;;;6.88;;
62861;SDS011;48953;53.110;5.592;2023-03-19T15:33:48;13.80;;;7.10;;
62861;SDS011;48953;53.110;5.592;2023-03-19T15:38:45;16.33;;;7.90;;
62861;SDS011;48953;53.110;5.592;2023-03-19T15:41:13;22.08;;;7.82;;
62861;SDS011;48953;53.110;5.592;2023-03-19T15:43:40;26.15;;;9.48;;
62861;SDS011;48953;53.110;5.592;2023-03-19T15:46:09;27.27;;;10.88;;
62861;SDS011;48953;53.110;5.592;2023-03-19T15:48:43;30.53;;;9.73;;
62861;SDS011;48953;53.110;5.592;2023-03-19T15:51:10;28.63;;;9.95;;
62861;SDS011;48953;53.110;5.592;2023-03-19T15:53:37;26.45;;;9.57;;
62861;SDS011;48953;53.110;5.592;2023-03-19T15:56:03;26.80;;;9.98;;
62861;SDS011;48953;53.110;5.592;2023-03-19T15:58:37;24.73;;;9.38;;
62861;SDS011;48953;53.110;5.592;2023-03-19T16:01:05;27.23;;;8.90;;
62861;SDS011;48953;53.110;5.592;2023-03-19T16:06:02;24.23;;;8.50;;
62861;SDS011;48953;53.110;5.592;2023-03-19T16:08:30;25.52;;;8.60;;
62861;SDS011;48953;53.110;5.592;2023-03-19T16:14:08;28.77;;;9.13;;
62861;SDS011;48953;53.110;5.592;2023-03-19T16:16:34;23.60;;;8.13;;
62861;SDS011;48953;53.110;5.592;2023-03-19T16:19:03;18.20;;;7.03;;
62861;SDS011;48953;53.110;5.592;2023-03-19T16:21:36;19.40;;;7.00;;
62861;SDS011;48953;53.110;5.592;2023-03-19T16:26:29;17.83;;;8.32;;
62861;SDS011;48953;53.110;5.592;2023-03-19T16:29:13;23.15;;;9.38;;
62861;SDS011;48953;53.110;5.592;2023-03-19T16:31:41;18.45;;;7.45;;
62861;SDS011;48953;53.110;5.592;2023-03-19T16:34:20;17.75;;;7.47;;
62861;SDS011;48953;53.110;5.592;2023-03-19T16:37:00;12.27;;;5.40;;
62861;SDS011;48953;53.110;5.592;2023-03-19T16:39:34;11.40;;;4.60;;
62861;SDS011;48953;53.110;5.592;2023-03-19T16:44:39;7.53;;;3.97;;
62861;SDS011;48953;53.110;5.592;2023-03-19T16:47:09;8.07;;;3.83;;
62861;SDS011;48953;53.110;5.592;2023-03-19T16:49:35;9.23;;;4.15;;
62861;SDS011;48953;53.110;5.592;2023-03-19T16:52:01;5.80;;;2.83;;
62861;SDS011;48953;53.110;5.592;2023-03-19T16:54:27;7.85;;;3.75;;
62861;SDS011;48953;53.110;5.592;2023-03-19T16:56:53;6.25;;;3.53;;
62861;SDS011;48953;53.110;5.592;2023-03-19T16:59:19;7.68;;;3.50;;
62861;SDS011;48953;53.110;5.592;2023-03-19T17:01:47;7.95;;;3.55;;